createdAt,value
2018-12-20T00:01:22.778Z,103.87
2018-12-20T00:03:57.860Z,94.07
2018-12-20T00:06:28.766Z,97.97
2018-12-20T00:09:00.537Z,97.80
2018-12-20T00:11:33.151Z,100.33
2018-12-20T00:14:04.185Z,93.53
2018-12-20T00:16:54.115Z,98.67
2018-12-20T00:19:29.093Z,105.37
2018-12-20T00:22:02.007Z,94.50
2018-12-20T00:24:38.856Z,99.77
2018-12-20T00:27:10.473Z,101.00
2018-12-20T00:29:44.031Z,111.40
2018-12-20T00:32:15.165Z,92.77
2018-12-20T00:34:47.399Z,94.63
2018-12-20T00:37:26.654Z,98.87
2018-12-20T00:40:13.773Z,94.57
2018-12-20T00:42:44.127Z,98.40
2018-12-20T00:45:19.618Z,100.77
2018-12-20T00:47:55.572Z,100.07
2018-12-20T00:50:31.519Z,102.03
2018-12-20T00:53:19.637Z,103.17
2018-12-20T00:55:51.285Z,98.47
2018-12-20T00:58:46.201Z,111.47
2018-12-20T01:01:27.353Z,101.67
2018-12-20T01:04:02.778Z,99.13
2018-12-20T01:06:42.780Z,108.07
2018-12-20T01:09:22.739Z,107.00
2018-12-20T01:12:02.417Z,112.07
2018-12-20T01:14:50.867Z,117.57
2018-12-20T01:17:45.427Z,110.50
2018-12-20T01:20:22.986Z,97.90
2018-12-20T01:22:54.821Z,103.20
2018-12-20T01:25:27.737Z,109.07
2018-12-20T01:28:02.743Z,109.90
2018-12-20T01:30:36.177Z,100.13
2018-12-20T01:33:09.589Z,107.33
2018-12-20T01:35:42.049Z,101.67
2018-12-20T01:38:16.023Z,96.30
2018-12-20T01:40:48.227Z,99.70
2018-12-20T01:43:25.365Z,99.20
2018-12-20T01:45:57.501Z,101.90
2018-12-20T01:48:29.055Z,99.80
2018-12-20T01:51:01.884Z,101.17
2018-12-20T01:53:37.855Z,98.30
2018-12-20T01:56:14.926Z,109.40
2018-12-20T01:58:45.321Z,99.10
2018-12-20T02:01:15.699Z,103.17
2018-12-20T02:03:46.624Z,98.80
2018-12-20T02:06:22.493Z,110.77
2018-12-20T02:08:52.972Z,101.80
2018-12-20T02:11:24.045Z,108.07
2018-12-20T02:13:55.358Z,101.50
2018-12-20T02:16:26.011Z,106.60
2018-12-20T02:18:55.809Z,113.07
2018-12-20T02:21:26.898Z,103.00
2018-12-20T02:23:57.500Z,105.53
2018-12-20T02:26:28.618Z,110.27
2018-12-20T02:28:58.237Z,94.97
2018-12-20T02:31:29.478Z,96.63
2018-12-20T02:34:02.593Z,103.17
2018-12-20T02:36:35.859Z,97.07
2018-12-20T02:39:12.425Z,98.73
2018-12-20T02:41:43.578Z,102.57
2018-12-20T02:44:15.271Z,102.13
2018-12-20T02:46:45.024Z,110.93
2018-12-20T02:49:14.876Z,107.43
2018-12-20T02:51:46.347Z,97.27
2018-12-20T02:54:18.275Z,106.30
2018-12-20T02:56:48.810Z,103.93
2018-12-20T02:59:29.071Z,107.93
2018-12-20T03:01:58.816Z,102.03
2018-12-20T03:04:30.978Z,97.60
2018-12-20T03:07:01.073Z,99.77
2018-12-20T03:12:05.640Z,102.03
2018-12-20T03:14:38.709Z,93.03
2018-12-20T03:17:10.662Z,99.40
2018-12-20T03:19:41.004Z,99.30
2018-12-20T03:22:19.880Z,89.40
2018-12-20T03:24:53.265Z,96.40
2018-12-20T03:27:26.295Z,92.73
2018-12-20T03:29:58.517Z,97.07
2018-12-20T03:32:28.062Z,94.50
2018-12-20T03:34:58.646Z,93.60
2018-12-20T03:37:28.746Z,93.50
2018-12-20T03:40:03.611Z,95.50
2018-12-20T03:42:34.355Z,94.63
2018-12-20T03:45:09.936Z,92.33
2018-12-20T03:47:40.242Z,104.20
2018-12-20T03:50:10.702Z,107.77
2018-12-20T03:52:48.594Z,97.47
2018-12-20T03:55:25.114Z,97.80
2018-12-20T03:57:56.130Z,85.70
2018-12-20T04:00:33.731Z,92.37
2018-12-20T04:03:04.828Z,91.67
2018-12-20T04:05:36.910Z,98.50
2018-12-20T04:08:09.392Z,97.67
2018-12-20T04:10:41.622Z,89.40
2018-12-20T04:13:14.271Z,89.37
2018-12-20T04:15:46.128Z,89.40
2018-12-20T04:18:19.510Z,94.70
2018-12-20T04:20:49.889Z,95.70
2018-12-20T04:23:20.692Z,86.37
2018-12-20T04:25:52.304Z,92.97
2018-12-20T04:28:23.149Z,86.63
2018-12-20T04:30:53.151Z,100.80
2018-12-20T04:33:24.399Z,85.77
2018-12-20T04:35:57.515Z,92.70
2018-12-20T04:38:28.782Z,87.77
2018-12-20T04:41:01.636Z,95.43
2018-12-20T04:43:32.736Z,90.83
2018-12-20T04:46:03.894Z,90.97
2018-12-20T04:48:38.925Z,101.30
2018-12-20T04:51:09.557Z,92.40
2018-12-20T04:53:45.249Z,96.73
2018-12-20T04:56:17.686Z,100.90
2018-12-20T04:58:48.188Z,99.83
2018-12-20T05:01:17.640Z,89.30
2018-12-20T05:03:51.517Z,94.50
2018-12-20T05:06:27.898Z,86.87
2018-12-20T05:09:08.625Z,103.97
2018-12-20T05:11:48.302Z,95.23
2018-12-20T05:14:21.001Z,102.47
2018-12-20T05:16:54.053Z,89.17
2018-12-20T05:19:26.550Z,88.27
2018-12-20T05:21:57.070Z,93.40
2018-12-20T05:24:30.470Z,94.83
2018-12-20T05:27:05.979Z,98.10
2018-12-20T05:29:36.588Z,98.27
2018-12-20T05:32:10.501Z,102.70
2018-12-20T05:37:24.807Z,101.73
2018-12-20T05:39:57.904Z,93.70
2018-12-20T05:42:30.485Z,98.73
2018-12-20T05:45:09.057Z,100.60
2018-12-20T05:47:44.673Z,90.77
2018-12-20T05:50:18.923Z,98.53
2018-12-20T05:52:48.502Z,98.83
2018-12-20T05:55:23.818Z,98.13
2018-12-20T05:58:02.576Z,100.30
2018-12-20T06:00:35.766Z,99.23
2018-12-20T06:03:08.487Z,100.97
2018-12-20T06:05:39.797Z,97.97
2018-12-20T06:08:10.745Z,97.23
2018-12-20T06:13:25.720Z,96.20
2018-12-20T06:15:57.879Z,94.23
2018-12-20T06:18:30.438Z,95.10
2018-12-20T06:21:08.177Z,100.97
2018-12-20T06:23:39.099Z,99.73
2018-12-20T06:26:09.347Z,100.03
2018-12-20T06:28:39.185Z,94.87
2018-12-20T06:31:11.344Z,86.27
2018-12-20T06:33:40.978Z,95.87
2018-12-20T06:36:12.498Z,94.60
2018-12-20T06:38:46.681Z,104.97
2018-12-20T06:41:18.325Z,106.50
2018-12-20T06:43:53.077Z,95.93
2018-12-20T06:46:23.302Z,92.93
2018-12-20T06:48:57.925Z,115.03
2018-12-20T06:51:27.250Z,94.97
2018-12-20T06:53:57.467Z,120.63
2018-12-20T06:56:27.539Z,103.90
2018-12-20T06:59:05.772Z,105.97
2018-12-20T07:01:36.013Z,104.40
2018-12-20T07:04:06.011Z,95.70
2018-12-20T07:06:36.442Z,114.60
2018-12-20T07:09:14.196Z,102.33
2018-12-20T07:11:58.205Z,116.27
2018-12-20T07:14:28.819Z,119.23
2018-12-20T07:17:03.029Z,120.77
2018-12-20T07:19:34.491Z,115.63
2018-12-20T07:22:06.740Z,112.60
2018-12-20T07:28:04.149Z,112.60
2018-12-20T07:30:34.855Z,113.10
2018-12-20T07:33:07.743Z,104.83
2018-12-20T07:35:43.512Z,106.30
2018-12-20T07:38:19.227Z,106.90
2018-12-20T07:40:50.945Z,108.50
2018-12-20T07:43:23.479Z,111.37
2018-12-20T07:46:01.999Z,112.73
2018-12-20T07:48:32.263Z,105.70
2018-12-20T07:51:04.809Z,105.03
2018-12-20T07:53:38.712Z,114.50
2018-12-20T07:56:13.031Z,101.03
2018-12-20T08:01:22.661Z,106.00
2018-12-20T08:03:54.865Z,105.47
2018-12-20T08:06:26.584Z,103.07
2018-12-20T08:08:58.662Z,112.53
2018-12-20T08:11:34.882Z,96.20
2018-12-20T08:14:05.759Z,109.17
2018-12-20T08:16:45.856Z,95.17
2018-12-20T08:19:13.161Z,95.70
2018-12-20T08:21:49.959Z,105.33
2018-12-20T08:24:20.369Z,99.30
2018-12-20T08:26:53.123Z,117.27
2018-12-20T08:29:27.036Z,106.43
2018-12-20T08:31:57.486Z,98.20
2018-12-20T08:37:05.244Z,92.90
2018-12-20T08:39:46.594Z,106.07
2018-12-20T08:42:17.453Z,104.13
2018-12-20T08:44:50.445Z,95.43
2018-12-20T08:47:27.072Z,104.57
2018-12-20T08:49:56.953Z,107.03
2018-12-20T08:52:32.630Z,103.53
2018-12-20T08:55:10.560Z,107.90
2018-12-20T08:57:41.616Z,98.67
2018-12-20T09:00:11.283Z,98.53
2018-12-20T09:02:59.360Z,100.50
2018-12-20T09:05:29.947Z,102.43
2018-12-20T09:08:01.435Z,100.47
2018-12-20T09:10:35.084Z,105.77
2018-12-20T09:13:09.482Z,100.17
2018-12-20T09:15:40.871Z,110.07
2018-12-20T09:18:14.106Z,106.37
2018-12-20T09:20:43.930Z,104.43
2018-12-20T09:23:13.438Z,96.77
2018-12-20T09:25:43.717Z,91.63
2018-12-20T09:28:22.042Z,95.97
2018-12-20T09:30:51.599Z,101.60
2018-12-20T09:33:22.114Z,96.67
2018-12-20T09:35:56.328Z,100.57
2018-12-20T09:38:26.412Z,97.43
2018-12-20T09:40:57.192Z,107.23
2018-12-20T09:43:27.718Z,99.53
2018-12-20T09:45:57.207Z,95.20
2018-12-20T09:48:29.113Z,95.33
2018-12-20T09:50:59.058Z,97.70
2018-12-20T09:53:28.357Z,90.43
2018-12-20T09:55:58.471Z,101.43
2018-12-20T09:58:27.763Z,102.40
2018-12-20T10:00:58.119Z,105.27
2018-12-20T10:03:28.720Z,106.47
2018-12-20T10:06:02.585Z,98.20
2018-12-20T10:08:33.252Z,95.50
2018-12-20T10:11:03.726Z,98.57
2018-12-20T10:13:34.108Z,104.63
2018-12-20T10:16:06.794Z,107.13
2018-12-20T10:18:38.422Z,100.23
2018-12-20T10:21:12.959Z,101.23
2018-12-20T10:23:42.967Z,104.33
2018-12-20T10:26:12.255Z,97.20
2018-12-20T10:28:41.387Z,97.50
2018-12-20T10:31:10.872Z,98.10
2018-12-20T10:33:40.089Z,101.27
2018-12-20T10:36:09.158Z,100.43
2018-12-20T10:38:38.452Z,96.93
2018-12-20T10:41:07.685Z,98.93
2018-12-20T10:43:36.863Z,93.67
2018-12-20T10:46:06.408Z,106.03
2018-12-20T10:48:36.155Z,102.00
2018-12-20T10:51:05.998Z,95.43
2018-12-20T10:53:38.414Z,109.90
2018-12-20T10:56:07.799Z,103.33
2018-12-20T10:58:37.215Z,94.40
2018-12-20T11:01:11.928Z,109.00
2018-12-20T11:03:48.028Z,96.63
2018-12-20T11:06:23.137Z,100.10
2018-12-20T11:08:58.241Z,108.70
2018-12-20T11:11:32.449Z,104.33
2018-12-20T11:14:03.124Z,110.83
2018-12-20T11:16:48.419Z,106.40
2018-12-20T11:19:22.001Z,104.87
2018-12-20T11:22:04.736Z,114.10
2018-12-20T11:24:51.998Z,110.30
2018-12-20T11:30:38.931Z,110.47
2018-12-20T11:33:19.294Z,110.07
2018-12-20T11:35:49.838Z,117.03
2018-12-20T11:38:24.183Z,114.00
2018-12-20T11:40:58.147Z,106.20
2018-12-20T11:43:40.579Z,120.73
2018-12-20T11:49:08.771Z,112.57
2018-12-20T11:51:43.094Z,120.83
2018-12-20T11:54:18.504Z,119.27
2018-12-20T11:56:49.908Z,127.87
2018-12-20T12:02:30.684Z,116.67
2018-12-20T12:05:08.907Z,118.33
2018-12-20T12:07:54.070Z,105.93
2018-12-20T12:10:27.803Z,111.90
2018-12-20T12:13:10.646Z,120.17
2018-12-20T12:15:46.847Z,113.57
2018-12-20T12:18:18.130Z,112.03
2018-12-20T12:20:47.845Z,119.37
2018-12-20T12:23:24.651Z,112.90
2018-12-20T12:26:12.526Z,116.60
2018-12-20T12:28:49.104Z,119.47
2018-12-20T12:31:34.594Z,121.67
2018-12-20T12:34:13.343Z,119.80
2018-12-20T12:36:50.922Z,135.93
2018-12-20T12:39:20.411Z,116.53
2018-12-20T12:41:50.535Z,123.17
2018-12-20T12:44:21.746Z,115.43
2018-12-20T12:46:51.911Z,121.00
2018-12-20T12:49:26.606Z,112.90
2018-12-20T12:52:00.852Z,119.03
2018-12-20T12:54:36.852Z,130.90
2018-12-20T12:57:08.477Z,124.67
2018-12-20T12:59:39.571Z,117.00
2018-12-20T13:02:11.235Z,115.23
2018-12-20T13:04:40.979Z,117.70
2018-12-20T13:07:12.277Z,114.20
2018-12-20T13:09:41.777Z,121.30
2018-12-20T13:12:11.908Z,115.10
2018-12-20T13:14:41.823Z,113.67
2018-12-20T13:17:11.163Z,112.40
2018-12-20T13:19:42.025Z,120.57
2018-12-20T13:22:11.653Z,110.57
2018-12-20T13:24:41.103Z,113.93
2018-12-20T13:27:10.418Z,122.43
2018-12-20T13:29:39.640Z,119.87
2018-12-20T13:32:08.780Z,119.80
2018-12-20T13:34:43.010Z,111.77
2018-12-20T13:37:15.833Z,119.43
2018-12-20T13:39:43.458Z,115.20
2018-12-20T13:42:14.424Z,117.50
2018-12-20T13:44:43.784Z,122.53
2018-12-20T13:47:14.125Z,124.30
2018-12-20T13:49:45.958Z,104.30
2018-12-20T13:52:17.262Z,119.63
2018-12-20T13:55:04.038Z,112.43
2018-12-20T13:57:38.327Z,127.13
2018-12-20T14:02:47.544Z,122.47
2018-12-20T14:05:18.336Z,118.73
2018-12-20T14:07:47.789Z,110.67
2018-12-20T14:10:17.396Z,120.97
2018-12-20T14:12:48.441Z,119.43
2018-12-20T14:15:19.110Z,126.97
2018-12-20T14:17:51.443Z,125.00
2018-12-20T14:20:22.114Z,123.80
2018-12-20T14:22:52.487Z,138.63
2018-12-20T14:25:29.680Z,115.87
2018-12-20T14:28:00.474Z,124.20
2018-12-20T14:30:29.807Z,128.47
2018-12-20T14:32:59.484Z,136.07
2018-12-20T14:35:29.954Z,125.83
2018-12-20T14:37:59.365Z,133.03
2018-12-20T14:40:28.906Z,137.10
2018-12-20T14:42:58.783Z,120.57
2018-12-20T14:45:28.231Z,125.60
2018-12-20T14:47:57.733Z,130.27
2018-12-20T14:50:27.895Z,122.43
2018-12-20T14:52:57.500Z,128.97
2018-12-20T14:55:27.630Z,119.63
2018-12-20T14:57:59.289Z,116.03
2018-12-20T15:00:38.084Z,131.27
2018-12-20T15:03:10.575Z,124.07
2018-12-20T15:05:48.591Z,121.53
2018-12-20T15:08:38.194Z,112.13
2018-12-20T15:16:14.143Z,116.23
2018-12-20T15:18:54.748Z,133.83
2018-12-20T15:21:30.178Z,116.70
2018-12-20T15:24:06.927Z,118.07
2018-12-20T15:26:43.552Z,122.87
2018-12-20T15:29:20.887Z,128.23
2018-12-20T15:31:55.439Z,132.13
2018-12-20T15:34:36.388Z,130.17
2018-12-20T15:37:25.864Z,128.20
2018-12-20T15:40:04.892Z,121.93
2018-12-20T15:42:48.394Z,129.63
2018-12-20T15:45:44.100Z,128.40
2018-12-20T15:48:30.754Z,128.50
2018-12-20T15:51:13.568Z,125.83
2018-12-20T15:54:04.585Z,118.80
2018-12-20T16:06:47.043Z,123.43
2018-12-20T16:12:25.368Z,133.13
2018-12-20T16:18:13.858Z,120.53
2018-12-20T16:21:17.423Z,129.00
2018-12-20T16:36:54.091Z,130.47
2018-12-20T16:42:47.890Z,140.90
2018-12-20T16:45:29.798Z,140.27
2018-12-20T16:48:02.300Z,140.30
2018-12-20T16:50:42.410Z,132.20
2018-12-20T16:53:30.913Z,136.43
2018-12-20T16:56:19.406Z,133.97
2018-12-20T16:58:58.766Z,138.53
2018-12-20T17:01:38.660Z,134.03
2018-12-20T17:07:55.000Z,134.87
2018-12-20T17:10:24.887Z,143.27
2018-12-20T17:13:00.736Z,139.97
2018-12-20T17:15:33.710Z,140.63
2018-12-20T17:18:23.232Z,137.00
2018-12-20T17:23:46.504Z,132.20
2018-12-20T17:42:32.067Z,125.37
2018-12-20T17:45:10.353Z,152.77
2018-12-20T17:47:54.646Z,123.13
2018-12-20T17:50:30.094Z,129.43
2018-12-20T17:53:07.790Z,131.07
2018-12-20T17:55:45.400Z,130.50
2018-12-20T18:00:59.902Z,137.00
2018-12-20T18:03:40.255Z,125.10
2018-12-20T18:06:14.085Z,133.33
2018-12-20T18:08:49.310Z,140.17
2018-12-20T18:11:26.714Z,136.53
2018-12-20T18:13:59.824Z,132.87
2018-12-20T18:16:49.439Z,149.07
2018-12-20T18:19:41.074Z,146.20
2018-12-20T18:22:15.884Z,154.17
2018-12-20T18:31:04.114Z,154.70
2018-12-20T18:33:45.272Z,151.07
2018-12-20T18:36:25.341Z,156.13
2018-12-20T18:39:15.132Z,156.67
2018-12-20T18:41:50.464Z,152.57
2018-12-20T18:44:28.555Z,147.93
2018-12-20T18:47:04.419Z,169.80
2018-12-20T18:49:47.475Z,157.77
2018-12-20T18:52:15.569Z,156.37
2018-12-20T18:54:51.655Z,159.43
2018-12-20T18:57:25.746Z,162.70
2018-12-20T19:00:13.194Z,156.30
2018-12-20T19:03:05.748Z,160.57
2018-12-20T19:05:40.065Z,156.50
2018-12-20T19:08:14.620Z,162.00
2018-12-20T19:10:57.390Z,163.17
2018-12-20T19:13:33.997Z,169.97
2018-12-20T19:16:08.454Z,160.57
2018-12-20T19:18:42.914Z,161.03
2018-12-20T19:21:18.137Z,168.93
2018-12-20T19:23:54.196Z,148.03
2018-12-20T19:26:27.959Z,155.53
2018-12-20T19:28:58.658Z,157.27
2018-12-20T19:31:37.256Z,158.80
2018-12-20T19:34:10.491Z,157.40
2018-12-20T19:39:58.683Z,152.40
2018-12-20T19:42:34.966Z,159.77
2018-12-20T19:45:11.772Z,161.47
2018-12-20T19:47:51.492Z,154.30
2018-12-20T19:50:29.141Z,154.30
2018-12-20T19:53:06.698Z,153.77
2018-12-20T19:55:43.172Z,170.10
2018-12-20T19:58:22.073Z,157.23
2018-12-20T20:01:06.628Z,167.37
2018-12-20T20:03:39.980Z,167.20
2018-12-20T20:06:21.125Z,171.37
2018-12-20T20:09:04.491Z,164.73
2018-12-20T20:11:39.059Z,160.93
2018-12-20T20:14:19.271Z,165.33
2018-12-20T20:17:05.938Z,150.93
2018-12-20T20:19:37.424Z,140.57
2018-12-20T20:22:09.300Z,150.27
2018-12-20T20:24:40.174Z,150.20
2018-12-20T20:27:20.047Z,162.27
2018-12-20T20:35:39.898Z,158.73
2018-12-20T20:38:15.418Z,154.90
2018-12-20T20:41:02.679Z,156.13
2018-12-20T20:43:37.444Z,153.07
2018-12-20T20:46:16.581Z,138.30
2018-12-20T20:51:51.051Z,162.40
2018-12-20T20:54:21.481Z,173.93
2018-12-20T20:56:51.899Z,159.40
2018-12-20T20:59:23.140Z,171.07
2018-12-20T21:01:53.382Z,163.97
2018-12-20T21:04:27.499Z,165.87
2018-12-20T21:06:57.578Z,162.00
2018-12-20T21:09:31.330Z,159.00
2018-12-20T21:12:13.117Z,167.77
2018-12-20T21:14:54.333Z,165.67
2018-12-20T21:17:29.579Z,159.00
2018-12-20T21:22:40.376Z,167.43
2018-12-20T21:25:14.511Z,166.57
2018-12-20T21:27:54.104Z,159.50
2018-12-20T21:30:29.968Z,165.43
2018-12-20T21:33:02.936Z,158.83
2018-12-20T21:35:36.769Z,164.03
2018-12-20T21:38:13.700Z,166.37
2018-12-20T21:40:48.473Z,155.70
2018-12-20T21:43:22.083Z,155.43
2018-12-20T21:46:12.428Z,142.57
2018-12-20T21:48:51.561Z,145.10
2018-12-20T21:51:32.465Z,154.27
2018-12-20T21:54:09.355Z,154.37
2018-12-20T21:56:43.444Z,157.83
2018-12-20T21:59:39.365Z,151.30
2018-12-20T22:02:23.826Z,169.23
2018-12-20T22:05:09.614Z,160.00
2018-12-20T22:07:53.371Z,162.77
2018-12-20T22:13:26.522Z,146.80
2018-12-20T22:16:14.359Z,142.10
2018-12-20T22:18:59.018Z,141.97
2018-12-20T22:21:59.691Z,140.27
2018-12-20T22:24:43.845Z,137.87
2018-12-20T22:27:26.936Z,144.20
2018-12-20T22:33:23.095Z,140.73
2018-12-20T22:36:10.198Z,143.97
2018-12-20T22:38:51.714Z,132.40
2018-12-20T22:45:08.148Z,128.83
2018-12-20T22:47:51.180Z,136.53
2018-12-20T22:50:26.160Z,136.57
2018-12-20T22:53:12.487Z,131.93
2018-12-20T22:56:03.519Z,143.27
2018-12-20T22:58:49.860Z,137.40
2018-12-20T23:01:25.186Z,147.73
2018-12-20T23:03:55.378Z,153.43
2018-12-20T23:06:25.586Z,145.87
2018-12-20T23:08:58.155Z,136.37
2018-12-20T23:11:50.512Z,154.07
2018-12-20T23:17:59.904Z,161.20
2018-12-20T23:20:47.267Z,142.83
2018-12-20T23:23:34.905Z,149.57
2018-12-20T23:26:14.255Z,134.17
2018-12-20T23:28:54.919Z,133.20
2018-12-20T23:31:46.184Z,138.53
2018-12-20T23:36:54.752Z,150.90
2018-12-20T23:39:37.519Z,135.83
2018-12-20T23:42:16.159Z,140.40
2018-12-20T23:48:30.523Z,155.60
2018-12-20T23:51:13.437Z,134.10
2018-12-20T23:53:58.296Z,133.97
2018-12-20T23:56:40.351Z,138.90
2018-12-20T23:59:27.269Z,123.77
